Latest Weather Observations for Port Kembla Harbour

IDN60801

Issued at 11:32 pm EDT Monday 30 March 2015 (issued every 30 minutes, with the page automatically refreshed every 10 minutes)

About weather observations | Map of weather stations | Latest weather observations for NSW | Other Formats
Station Details ID: 068253 Name: PORT KEMBLA NTC AWS Lat: -34.47 Lon: 150.91 Height: 0.0 m
Data from the previous 72 hours. | See also: Recent months for locations in New South Wales
Date/Time
EDT
Temp
°C
App
Temp
°C
Dew
Point
Rel
Hum
%
Delta-T
°C
Wind Press
QNH
hPa
Press
MSL
hPa
Rain
since 9 am
mm
Dir
 
Spd
km/h
Gust
km/h
Spd
kts
Gust
kts
30/11:30pm 19.7 - - - - SSW 6 9 3 5 1024.9 1024.9 -
30/11:00pm 19.5 - - - - SW 2 4 1 2 1025.0 1025.0 -
30/10:30pm 19.4 - - - - SW 6 7 3 4 1025.0 1025.0 -
30/10:00pm 19.7 - - - - WSW 6 7 3 4 1024.9 1024.9 -
30/09:30pm 20.5 - - - - WNW 4 4 2 2 1024.9 1024.9 -
30/09:00pm 20.2 - - - - SW 4 6 2 3 1024.7 1024.7 -
30/08:30pm 20.6 - - - - WSW 6 9 3 5 1024.4 1024.4 -
30/08:00pm 21.0 - - - - N 2 4 1 2 1024.2 1024.2 -
30/07:30pm 21.0 - - - - NNE 4 6 2 3 1024.0 1024.0 -
30/07:00pm 21.0 - - - - NE 6 9 3 5 1023.8 1023.8 -
30/06:30pm 21.1 - - - - NE 7 9 4 5 1023.6 1023.6 -
30/06:00pm 21.0 - - - - ENE 4 6 2 3 1023.2 1023.2 -
30/05:30pm 21.0 - - - - E 6 7 3 4 1022.8 1022.8 -
30/05:00pm 21.0 - - - - ENE 6 7 3 4 1022.6 1022.6 -
30/04:30pm 20.9 - - - - E 7 11 4 6 1022.4 1022.4 -
30/04:00pm 21.0 - - - - SE 7 11 4 6 1022.4 1022.4 -
30/03:30pm 20.8 - - - - SE 7 11 4 6 1022.4 1022.4 -
30/03:00pm 20.8 - - - - SE 7 11 4 6 1022.3 1022.3 -
30/02:30pm 20.8 - - - - SE 9 13 5 7 1022.4 1022.4 -
30/02:00pm 20.8 - - - - S 7 15 4 8 1022.7 1022.7 -
30/01:30pm 21.1 - - - - SE 7 11 4 6 1023.1 1023.1 -
30/01:00pm 20.6 - - - - SE 4 9 2 5 1023.4 1023.4 -
30/12:30pm 20.5 - - - - E 6 7 3 4 1023.8 1023.8 -
30/12:00pm 20.4 - - - - ESE 11 19 6 10 1024.4 1024.4 -
30/11:30am 20.7 - - - - SE 9 17 5 9 1024.6 1024.6 -
30/11:00am 20.5 - - - - SSE 11 19 6 10 1024.2 1024.2 -
30/10:30am 20.4 - - - - SSE 9 17 5 9 1023.9 1023.9 -
30/10:00am 20.1 - - - - S 6 9 3 5 1024.0 1024.0 -
30/09:30am 20.1 - - - - SW 4 7 2 4 1024.0 1024.0 -
30/09:00am 19.5 - - - - W 7 9 4 5 1024.1 1024.1 -
30/08:30am 19.0 - - - - W 4 6 2 3 1023.9 1023.9 -
30/08:00am 18.8 - - - - W 4 6 2 3 1023.7 1023.7 -
30/07:30am 18.6 - - - - WSW 4 6 2 3 1023.3 1023.3 -
30/07:00am 18.8 - - - - WSW 6 7 3 4 1022.9 1022.9 -
30/06:30am 18.9 - - - - SW 6 7 3 4 1022.4 1022.4 -
30/06:00am 19.0 - - - - SW 6 7 3 4 1022.1 1022.1 -
30/05:30am 19.0 - - - - SW 7 9 4 5 1021.8 1021.8 -
30/05:00am 18.5 - - - - SW 7 11 4 6 1021.5 1021.5 -
30/04:30am 18.7 - - - - WSW 6 7 3 4 1021.4 1021.4 -
30/04:00am 18.6 - - - - WSW 6 6 3 3 1021.4 1021.4 -
30/03:30am 18.6 - - - - SW 7 9 4 5 1021.6 1021.6 -
30/03:00am 18.6 - - - - SW 7 9 4 5 1021.6 1021.6 -
30/02:30am 18.8 - - - - WSW 7 9 4 5 1021.9 1021.9 -
30/02:00am 18.6 - - - - WSW 7 9 4 5 1022.0 1022.0 -
30/01:30am 19.1 - - - - WSW 6 6 3 3 1022.3 1022.3 -
30/01:00am 19.1 - - - - WSW 4 6 2 3 1022.5 1022.5 -
30/12:30am 18.8 - - - - SW 6 6 3 3 1022.6 1022.6 -
30/12:00am 18.9 - - - - SW 6 7 3 4 1022.8 1022.8 -
 
Date/Time
EDT
Temp
°C
App
Temp
°C
Dew
Point
Rel
Hum
%
Delta-T
°C
Wind Press
QNH
hPa
Press
MSL
hPa
Rain
since 9 am
mm
Dir
 
Spd
km/h
Gust
km/h
Spd
kts
Gust
kts
29/11:30pm 19.3 - - - - WSW 6 7 3 4 1022.8 1022.8 -
29/11:00pm 19.5 - - - - WSW 6 9 3 5 1022.9 1022.9 -
29/10:30pm 19.8 - - - - W 6 7 3 4 1022.9 1022.9 -
29/10:00pm 20.2 - - - - WNW 9 11 5 6 1022.6 1022.6 -
29/09:30pm 21.5 - - - - NNW 6 7 3 4 1022.2 1022.2 -
29/09:00pm 21.4 - - - - N 7 11 4 6 1021.8 1021.8 -
29/08:30pm 21.5 - - - - N 9 15 5 8 1021.6 1021.6 -
29/08:00pm 21.9 - - - - NNE 19 26 10 14 1021.3 1021.3 -
29/07:30pm 22.0 - - - - NNE 20 26 11 14 1020.9 1020.9 -
29/07:00pm 22.1 - - - - NNE 22 28 12 15 1020.6 1020.6 -
29/06:30pm 22.1 - - - - NE 20 28 11 15 1020.4 1020.4 -
29/06:00pm 22.1 - - - - NE 20 28 11 15 1020.3 1020.3 -
29/05:30pm 21.9 - - - - NE 20 26 11 14 1020.2 1020.2 -
29/05:00pm 21.8 - - - - NE 22 30 12 16 1020.0 1020.0 -
29/04:30pm 21.7 - - - - NE 22 30 12 16 1020.2 1020.2 -
29/04:00pm 21.7 - - - - NE 24 32 13 17 1020.0 1020.0 -
29/03:30pm 21.8 - - - - NE 24 33 13 18 1020.1 1020.1 -
29/03:00pm 21.9 - - - - NE 24 33 13 18 1020.2 1020.2 -
29/02:30pm 21.7 - - - - NE 26 33 14 18 1020.4 1020.4 -
29/02:00pm 22.0 - - - - NE 24 32 13 17 1020.7 1020.7 -
29/01:30pm 21.9 - - - - NE 20 30 11 16 1021.0 1021.0 -
29/01:00pm 22.2 - - - - NE 19 24 10 13 1021.5 1021.5 -
29/12:30pm 21.5 - - - - NE 19 26 10 14 1021.8 1021.8 -
29/12:00pm 21.6 - - - - NE 15 19 8 10 1022.0 1022.0 -
29/11:30am 21.4 - - - - NNE 15 20 8 11 1022.4 1022.4 -
29/11:00am 21.4 - - - - NNE 19 30 10 16 1022.7 1022.7 -
29/10:30am 20.9 - - - - N 19 24 10 13 1022.9 1022.9 -
29/10:00am 20.3 - - - - NNW 15 22 8 12 1022.9 1022.9 -
29/09:30am 19.9 - - - - NNW 17 24 9 13 1022.8 1022.8 -
29/09:00am 19.6 - - - - NNW 19 26 10 14 1022.6 1022.6 -
29/08:30am 19.1 - - - - NW 15 20 8 11 1022.4 1022.4 -
29/08:00am 18.5 - - - - NNW 11 15 6 8 1022.1 1022.1 -
29/07:30am 18.6 - - - - N 7 13 4 7 1022.1 1022.1 -
29/07:00am 18.2 - - - - NNW 11 15 6 8 1021.8 1021.8 -
29/06:30am 18.1 - - - - NNW 7 11 4 6 1021.5 1021.5 -
29/06:00am 17.9 - - - - NW 11 13 6 7 1021.3 1021.3 -
29/05:30am 17.1 - - - - WSW 4 6 2 3 1021.1 1021.1 -
29/05:00am 16.2 - - - - WSW 6 7 3 4 1021.3 1021.3 -
29/04:30am 15.7 - - - - SW 6 9 3 5 1021.3 1021.3 -
29/04:00am 16.1 - - - - WSW 9 11 5 6 1021.4 1021.4 -
29/03:30am 16.0 - - - - SW 9 11 5 6 1021.5 1021.5 -
29/03:00am 16.2 - - - - WSW 9 11 5 6 1021.7 1021.7 -
29/02:30am 16.1 - - - - SW 7 9 4 5 1022.0 1022.0 -
29/02:00am 16.4 - - - - WSW 6 7 3 4 1022.2 1022.2 -
29/01:30am 16.4 - - - - WSW 7 9 4 5 1022.5 1022.5 -
29/01:00am 16.4 - - - - WSW 6 7 3 4 1022.9 1022.9 -
29/12:30am 16.2 - - - - W 9 11 5 6 1022.9 1022.9 -
29/12:00am 16.7 - - - - SW 7 9 4 5 1022.9 1022.9 -
 
Date/Time
EDT
Temp
°C
App
Temp
°C
Dew
Point
Rel
Hum
%
Delta-T
°C
Wind Press
QNH
hPa
Press
MSL
hPa
Rain
since 9 am
mm
Dir
 
Spd
km/h
Gust
km/h
Spd
kts
Gust
kts
28/11:30pm 17.2 - - - - SW 6 9 3 5 1023.0 1023.0 -
28/11:00pm 17.2 - - - - WSW 7 9 4 5 1023.3 1023.3 -
28/10:30pm 17.8 - - - - WSW 9 11 5 6 1023.5 1023.5 -
28/10:00pm 17.8 - - - - WSW 9 13 5 7 1023.4 1023.4 -
28/09:30pm 19.4 - - - - SE 4 9 2 5 1023.4 1023.4 -
28/09:00pm 19.4 - - - - SE 6 9 3 5 1023.0 1023.0 -
28/08:30pm 19.4 - - - - SE 7 15 4 8 1022.6 1022.6 -
28/08:00pm 19.6 - - - - SE 9 15 5 8 1022.5 1022.5 -
28/07:30pm 19.6 - - - - SE 9 15 5 8 1022.4 1022.4 -
28/07:00pm 19.5 - - - - SSE 7 15 4 8 1022.1 1022.1 -
28/06:30pm 19.7 - - - - SE 7 13 4 7 1022.0 1022.0 -
28/06:00pm 19.6 - - - - SE 11 17 6 9 1021.8 1021.8 -
28/05:30pm 19.8 - - - - SSE 9 15 5 8 1021.6 1021.6 -
28/05:00pm 20.0 - - - - SE 13 19 7 10 1021.5 1021.5 -
28/04:30pm 19.8 - - - - SE 13 19 7 10 1021.4 1021.4 -
28/04:00pm 19.9 - - - - SE 13 20 7 11 1021.6 1021.6 -
28/03:30pm 20.0 - - - - SE 13 20 7 11 1021.7 1021.7 -
28/03:00pm 20.0 - - - - SE 13 19 7 10 1021.9 1021.9 -
28/02:30pm 19.9 - - - - SE 13 20 7 11 1022.0 1022.0 -
28/02:00pm 19.9 - - - - SE 17 24 9 13 1022.2 1022.2 -
28/01:30pm 20.0 - - - - SE 15 22 8 12 1022.4 1022.4 -
28/01:00pm 19.9 - - - - SE 15 22 8 12 1022.8 1022.8 -
28/12:30pm 20.2 - - - - SE 13 22 7 12 1023.1 1023.1 -
28/12:00pm 20.0 - - - - SE 13 22 7 12 1023.2 1023.2 -
28/11:30am 20.3 - - - - S 9 20 5 11 1023.2 1023.2 -
28/11:00am 20.6 - - - - S 7 19 4 10 1023.1 1023.1 -

Other Formats:

Comma delimited format used in spreadsheet applications
http://www.bom.gov.au/fwo/IDN60801/IDN60801.95745.axf

JavaScript Object Notation format (JSON) in row-major order
http://www.bom.gov.au/fwo/IDN60801/IDN60801.95745.json